Arverne, NY

3:31 PM EDT on July 29, 2016 (GMT -0400)
Rockaway - WeatherMan Ken | | Change Station

Elev 7 ft 40.58 °N, 73.84 °W | Updated 4 minutes ago

Scattered Clouds
Scattered Clouds
81.5 °F
Feels Like 85 °F
N
5.8
Wind Variable Wind from ENE

Today
High -- | Low -- °F
--% Chance of Precip.
Yesterday
High -- | Low -- °F
Precip. -- in
Pressure 29.84 in
Visibility 10.0 miles
Clouds Scattered Clouds 2500 ft
Scattered Clouds 5000 ft
Scattered Clouds 25000 ft
Heat Index 85 °F
Dew Point 70 °F
Humidity 69%
Rainfall 0.57 in
Snow Depth Not available.
5:49 AM 8:12 PM
Waning Crescent, 19% visible
METAR KJFK 291851Z 02011KT 10SM SCT025 SCT050 SCT250 28/19 A2984 RMK AO2 SLP104 T02830194
Pressure 29.84 in
Visibility 10.0 miles
Clouds Scattered Clouds 2500 ft
Scattered Clouds 5000 ft
Scattered Clouds 25000 ft
Heat Index 85 °F
Dew Point 70 °F
Humidity 69%
Rainfall 0.57 in
Snow Depth Not available.
5:49 AM 8:12 PM
Waning Crescent, 19% visible
METAR KJFK 291851Z 02011KT 10SM SCT025 SCT050 SCT250 28/19 A2984 RMK AO2 SLP104 T02830194

10-Day Weather Forecast

Almanac

Astronomy

Jul. 29, 2016 Rise Set
Actual Time
Civil Twilight
Nautical Twilight
Astronomical Twilight
Moon
Length of Visible Light
Length of Day
Tomorrow will be .
, % of the Moon is Illuminated

Today's Extremes

State Highs State Lows

Community

WunderPhotos

Upload Photos

1,928,399 photos uploaded!

WunderBlog® & News

Nearby

Air Quality

  Air Quality AQ Index Pollutant
Not available.

Snow Depth

Station Depth Elevation

Earthquake Activity

City Distance Mag. Time & Date
Minimum magnitude displayed is 2.5.

Coastal Water Temperatures

Place Temperature

Stations

Nearby Weather Stations

Station Location Temp. Windchill Dew Point Humidity Wind Precip. Elev Updated Type
                   

Watches & Warnings

There are currently no watches in effect.